Time;durP1;ratioP1;P1;durP2;ratioP2;P2;SDS_P1;SDS_P2;PMS_P1;PMS_P2;Temp;Humidity;BMP_temperature;BMP_pressure;BME280_temperature;BME280_humidity;BME280_pressure;Samples;Min_cycle;Max_cycle;Signal;HPM_P1;HPM_P2
2023/05/03 00:00:07;;;;;;;7.80;4.35;;;;;;;10.21;56.02;103085.81;4963881;28;20118;-43
2023/05/03 00:02:39;;;;;;;8.70;4.70;;;;;;;10.15;56.17;103084.66;4960785;28;20104;-43
2023/05/03 00:05:11;;;;;;;9.25;4.55;;;;;;;10.18;55.94;103080.47;4964171;28;20023;-42
2023/05/03 00:07:36;;;;;;;9.40;4.53;;;;;;;10.14;56.36;103080.25;4960691;28;20061;-43
2023/05/03 00:10:03;;;;;;;11.52;4.97;;;;;;;10.15;56.51;103082.03;4963265;28;20031;-45
2023/05/03 00:12:28;;;;;;;7.60;4.40;;;;;;;10.12;56.97;103088.84;4960907;28;20035;-42
2023/05/03 00:14:53;;;;;;;7.30;4.35;;;;;;;10.10;56.49;103091.34;4963284;28;20080;-43
2023/05/03 00:17:19;;;;;;;7.38;4.22;;;;;;;10.09;56.85;103094.78;4959985;28;20418;-44
2023/05/03 00:19:44;;;;;;;11.50;4.32;;;;;;;10.12;56.90;103094.03;4963435;28;20042;-44
2023/05/03 00:22:11;;;;;;;8.43;4.57;;;;;;;10.03;57.98;103088.34;4963056;28;20151;-43
2023/05/03 00:24:36;;;;;;;8.10;4.60;;;;;;;10.16;57.37;103086.47;4959491;28;20425;-45
2023/05/03 00:27:03;;;;;;;12.48;4.68;;;;;;;10.18;57.38;103082.22;4963774;28;20031;-44
2023/05/03 00:29:28;;;;;;;10.98;4.72;;;;;;;10.20;57.65;103079.69;4959646;28;20066;-44
2023/05/03 00:31:54;;;;;;;10.05;4.80;;;;;;;10.23;57.03;103076.38;4964241;28;20034;-44
2023/05/03 00:34:19;;;;;;;7.88;4.55;;;;;;;10.24;57.19;103079.06;4960283;28;20034;-46
2023/05/03 00:36:45;;;;;;;10.10;4.28;;;;;;;10.16;56.91;103078.66;4963640;28;20058;-43
2023/05/03 00:39:10;;;;;;;8.80;4.40;;;;;;;10.10;57.50;103082.63;4963589;28;20382;-44
2023/05/03 00:41:35;;;;;;;9.73;4.70;;;;;;;10.01;58.04;103083.06;4960780;28;20031;-43
2023/05/03 00:44:01;;;;;;;9.30;4.78;;;;;;;10.01;58.07;103082.16;4963497;28;20041;-42
2023/05/03 00:46:26;;;;;;;10.38;4.80;;;;;;;10.01;57.71;103085.66;4962864;28;20038;-44
2023/05/03 00:48:52;;;;;;;8.77;4.70;;;;;;;10.03;57.63;103091.84;4966797;28;20547;-44
2023/05/03 00:51:19;;;;;;;7.78;4.30;;;;;;;9.99;57.98;103083.81;4963405;28;20118;-43
2023/05/03 00:53:45;;;;;;;9.32;4.88;;;;;;;9.95;57.74;103087.94;4962323;28;20049;-44
2023/05/03 00:56:10;;;;;;;8.95;5.10;;;;;;;9.92;57.72;103087.81;4965070;28;20023;-46
2023/05/03 00:58:38;;;;;;;7.93;4.60;;;;;;;9.90;57.70;103096.34;4963455;28;20066;-44
2023/05/03 01:01:07;;;;;;;10.77;4.93;;;;;;;9.84;58.46;103091.72;4963069;28;20058;-45
2023/05/03 01:03:35;;;;;;;10.90;5.13;;;;;;;9.89;57.94;103097.16;4982803;28;20408;-47
2023/05/03 01:06:06;;;;;;;9.73;5.10;;;;;;;9.88;58.25;103100.63;4972809;28;20027;-43
2023/05/03 01:08:40;;;;;;;9.38;4.93;;;;;;;9.82;59.09;103097.69;4966788;28;20057;-46
2023/05/03 01:11:32;;;;;;;7.50;4.72;;;;;;;9.83;59.11;103097.75;4967566;28;20061;-44
2023/05/03 01:14:07;;;;;;;10.38;4.90;;;;;;;9.83;58.82;103086.44;4968687;28;20035;-45
2023/05/03 01:16:43;;;;;;;8.57;4.82;;;;;;;9.79;58.55;103090.59;4968842;28;20125;-46
2023/05/03 01:19:34;;;;;;;8.40;4.85;;;;;;;9.73;58.85;103091.19;4973836;28;20034;-43
2023/05/03 01:22:13;;;;;;;9.45;4.70;;;;;;;9.69;58.77;103089.25;4972561;28;20023;-43
2023/05/03 01:24:41;;;;;;;9.10;4.60;;;;;;;9.63;58.81;103086.31;4963586;28;20039;-43
2023/05/03 01:27:08;;;;;;;9.02;4.60;;;;;;;9.63;58.78;103085.41;4967626;28;20449;-44
2023/05/03 01:29:34;;;;;;;8.20;4.78;;;;;;;9.56;59.44;103085.91;4963806;28;20402;-43
2023/05/03 01:32:00;;;;;;;9.57;5.03;;;;;;;9.52;59.79;103081.34;4967479;28;20512;-43
2023/05/03 01:34:58;;;;;;;8.40;4.82;;;;;;;9.50;59.80;103082.97;4963792;28;20050;-45
2023/05/03 01:37:24;;;;;;;9.63;5.10;;;;;;;9.48;59.90;103074.19;4967602;28;20037;-42
2023/05/03 01:39:56;;;;;;;9.57;5.15;;;;;;;9.45;60.21;103064.53;4969710;28;20027;-43
2023/05/03 01:42:23;;;;;;;8.15;5.30;;;;;;;9.42;60.45;103053.94;4966896;28;20513;-45
2023/05/03 01:44:49;;;;;;;8.55;4.95;;;;;;;9.50;59.58;103064.75;4968770;28;20034;-44
2023/05/03 01:47:15;;;;;;;10.50;5.15;;;;;;;9.41;60.48;103059.03;4966664;28;20085;-45
2023/05/03 01:49:40;;;;;;;10.05;5.25;;;;;;;9.39;60.31;103060.69;4963505;28;20038;-43
2023/05/03 01:52:05;;;;;;;8.68;5.22;;;;;;;9.33;60.97;103045.66;4969773;28;20031;-44
2023/05/03 01:54:31;;;;;;;9.15;5.30;;;;;;;9.35;60.96;103042.28;4964369;28;20039;-46
2023/05/03 01:56:56;;;;;;;9.98;5.10;;;;;;;9.36;60.61;103036.28;4966330;28;20062;-45
2023/05/03 01:59:22;;;;;;;8.70;5.57;;;;;;;9.38;60.97;103023.34;4977891;28;20038;-44
2023/05/03 02:01:47;;;;;;;11.32;5.28;;;;;;;9.42;61.02;103012.28;4966454;28;20031;-45
2023/05/03 02:04:12;;;;;;;8.45;5.45;;;;;;;9.39;60.92;103004.31;4965809;28;20052;-43
2023/05/03 02:06:37;;;;;;;9.88;6.20;;;;;;;9.40;60.78;103003.47;4962399;28;20038;-44
2023/05/03 02:09:03;;;;;;;9.88;5.50;;;;;;;9.35;61.27;103003.25;4965844;28;20035;-43
2023/05/03 02:11:28;;;;;;;9.73;5.40;;;;;;;9.38;60.90;103006.84;4977750;28;20042;-42
2023/05/03 02:13:53;;;;;;;9.27;5.40;;;;;;;9.40;60.76;103010.41;4965995;28;20089;-46
2023/05/03 02:16:19;;;;;;;9.00;5.03;;;;;;;9.41;60.22;103023.50;4962875;28;20046;-43
2023/05/03 02:18:45;;;;;;;9.38;5.13;;;;;;;9.40;60.54;103026.00;4966006;28;22624;-42
2023/05/03 02:21:11;;;;;;;9.43;5.40;;;;;;;9.34;60.36;103031.78;4965841;28;20026;-43
2023/05/03 02:23:37;;;;;;;9.68;5.30;;;;;;;9.33;60.82;103028.28;4962380;28;20034;-44
2023/05/03 02:26:02;;;;;;;9.02;5.20;;;;;;;9.30;61.01;103035.97;4965810;28;20030;-44
2023/05/03 02:28:27;;;;;;;9.55;5.15;;;;;;;9.28;61.10;103029.78;4962124;28;20039;-43
2023/05/03 02:30:53;;;;;;;8.57;5.22;;;;;;;9.29;61.13;103034.16;4967318;28;20034;-44
2023/05/03 02:33:18;;;;;;;8.95;5.35;;;;;;;9.29;60.92;103046.28;4964005;28;20438;-45
2023/05/03 02:35:43;;;;;;;7.53;4.88;;;;;;;9.29;60.45;103052.38;4965381;28;20063;-46
2023/05/03 02:38:09;;;;;;;9.07;5.00;;;;;;;9.26;60.58;103056.56;4966873;28;20034;-44
2023/05/03 02:40:34;;;;;;;8.38;5.13;;;;;;;9.20;60.90;103049.31;4963702;28;20122;-43
2023/05/03 02:43:01;;;;;;;9.15;4.85;;;;;;;9.18;61.15;103048.31;4966213;28;20031;-44
2023/05/03 02:45:26;;;;;;;7.50;4.80;;;;;;;9.26;61.04;103054.84;4963249;28;20173;-43
2023/05/03 02:47:51;;;;;;;9.80;4.68;;;;;;;9.23;61.14;103062.47;4966915;28;20094;-44
2023/05/03 02:50:17;;;;;;;6.55;4.50;;;;;;;9.16;61.68;103057.75;4967084;28;20172;-43
2023/05/03 02:52:42;;;;;;;6.82;4.57;;;;;;;9.20;61.51;103044.09;4964282;28;20176;-42
2023/05/03 02:55:08;;;;;;;9.38;4.43;;;;;;;9.26;61.23;103049.63;4968921;28;20039;-43
2023/05/03 02:57:33;;;;;;;9.30;4.60;;;;;;;9.29;61.17;103047.19;4965296;28;20489;-41
2023/05/03 02:59:58;;;;;;;8.40;4.28;;;;;;;9.33;61.32;103053.47;4968039;28;20379;-45
2023/05/03 03:02:24;;;;;;;10.00;4.07;;;;;;;9.25;61.03;103058.25;4964592;28;20500;-44
2023/05/03 03:04:50;;;;;;;9.57;4.70;;;;;;;9.22;61.57;103064.97;4965998;28;20416;-48
2023/05/03 03:07:15;;;;;;;9.20;4.15;;;;;;;9.34;61.32;103063.03;4964874;28;20114;-43
2023/05/03 03:09:40;;;;;;;5.93;3.97;;;;;;;9.31;61.34;103062.88;4962902;28;20043;-43
2023/05/03 03:12:06;;;;;;;8.30;4.30;;;;;;;9.33;60.79;103072.53;4966864;28;20429;-43
2023/05/03 03:14:31;;;;;;;8.35;4.15;;;;;;;9.27;60.89;103076.56;4963672;28;20030;-44
2023/05/03 03:16:56;;;;;;;9.23;4.57;;;;;;;9.22;61.25;103078.00;4966614;28;20031;-45
2023/05/03 03:19:22;;;;;;;5.00;3.80;;;;;;;9.19;61.17;103076.13;4963734;28;20058;-43
2023/05/03 03:21:47;;;;;;;7.90;4.22;;;;;;;9.18;60.86;103076.06;4966059;28;20038;-43
2023/05/03 03:24:12;;;;;;;7.68;4.15;;;;;;;9.12;61.21;103070.50;4965872;28;20089;-43
2023/05/03 03:26:38;;;;;;;6.85;4.20;;;;;;;9.13;60.86;103072.31;4963827;28;20054;-44
2023/05/03 03:29:03;;;;;;;8.43;3.90;;;;;;;9.09;60.89;103057.34;4965721;28;20042;-44
2023/05/03 03:31:28;;;;;;;6.70;3.72;;;;;;;9.07;61.33;103051.16;4963349;28;20178;-43
2023/05/03 03:33:54;;;;;;;7.05;3.80;;;;;;;9.09;60.98;103058.22;4967280;28;20031;-44
2023/05/03 03:36:19;;;;;;;7.40;3.60;;;;;;;9.12;61.34;103061.00;4961009;28;20038;-48
2023/05/03 03:38:45;;;;;;;8.23;3.92;;;;;;;9.15;60.98;103055.09;4964205;28;20049;-41
2023/05/03 03:41:10;;;;;;;9.60;3.75;;;;;;;9.08;61.48;103069.47;4964606;28;20027;-42
2023/05/03 03:43:35;;;;;;;8.40;4.13;;;;;;;9.05;61.70;103076.19;4960912;28;20409;-48
2023/05/03 03:46:01;;;;;;;7.95;3.95;;;;;;;9.05;61.28;103074.50;4963952;28;20034;-45
2023/05/03 03:48:26;;;;;;;7.63;4.00;;;;;;;9.03;61.28;103076.09;4969185;23;20053;-80
2023/05/03 03:51:04;;;;;;;8.45;3.78;;;;;;;9.07;60.56;103080.69;4975325;28;20039;-81
2023/05/03 03:53:32;;;;;;;6.30;3.65;;;;;;;9.04;60.77;103083.09;4966986;28;20034;-80
2023/05/03 03:55:57;;;;;;;6.50;3.70;;;;;;;9.01;60.86;103084.66;4972809;28;20121;-81
2023/05/03 03:58:22;;;;;;;7.53;3.50;;;;;;;9.00;60.79;103085.47;4968526;28;20031;-80
2023/05/03 04:00:48;;;;;;;5.88;3.47;;;;;;;8.93;61.11;103086.81;4974236;28;20554;-80
2023/05/03 04:03:14;;;;;;;5.57;3.50;;;;;;;8.98;60.85;103098.38;4990326;23;20050;-40
2023/05/03 04:05:39;;;;;;;8.73;3.90;;;;;;;8.98;60.70;103097.47;4980897;28;20034;-40
2023/05/03 04:08:05;;;;;;;7.13;3.83;;;;;;;8.94;61.08;103099.94;4983321;28;20080;-41
2023/05/03 04:10:30;;;;;;;7.13;3.53;;;;;;;9.01;60.96;103098.56;4961595;28;20066;-40
2023/05/03 04:12:56;;;;;;;7.25;3.55;;;;;;;8.98;60.84;103107.88;4963748;28;20039;-40
2023/05/03 04:15:21;;;;;;;9.02;3.85;;;;;;;8.98;60.53;103102.69;4961346;28;20134;-42
2023/05/03 04:17:47;;;;;;;7.65;3.42;;;;;;;9.00;60.68;103101.06;4963823;28;20066;-42
2023/05/03 04:20:12;;;;;;;8.05;3.90;;;;;;;9.01;60.57;103100.25;4964060;28;20045;-40
2023/05/03 04:22:39;;;;;;;6.57;3.45;;;;;;;8.99;60.33;103094.97;4960294;28;20042;-44
2023/05/03 04:25:07;;;;;;;8.02;3.95;;;;;;;8.97;60.48;103096.56;4963044;28;20035;-42
2023/05/03 04:27:33;;;;;;;7.82;3.70;;;;;;;8.95;60.63;103090.41;4959622;28;20087;-45
2023/05/03 04:29:58;;;;;;;6.32;4.00;;;;;;;9.04;60.09;103090.91;4962787;28;20035;-40
2023/05/03 04:32:24;;;;;;;7.68;3.90;;;;;;;8.95;60.56;103093.03;4960289;28;20039;-42
2023/05/03 04:34:51;;;;;;;8.43;3.90;;;;;;;8.91;60.55;103093.63;4964632;28;20521;-43
2023/05/03 04:37:17;;;;;;;12.57;4.45;;;;;;;8.95;60.38;103093.03;4964218;28;20030;-44
2023/05/03 04:39:44;;;;;;;8.27;4.05;;;;;;;8.92;60.87;103098.03;4962568;28;20050;-41
2023/05/03 04:42:09;;;;;;;7.75;4.20;;;;;;;9.02;61.05;103091.66;4965232;28;20166;-40
2023/05/03 04:44:35;;;;;;;8.73;4.10;;;;;;;9.05;61.32;103092.69;4958594;28;20059;-41
2023/05/03 04:47:01;;;;;;;8.00;4.00;;;;;;;9.09;61.42;103086.84;4965241;28;20396;-41
2023/05/03 04:49:26;;;;;;;7.78;4.07;;;;;;;9.13;61.08;103083.63;4961435;28;20042;-41
2023/05/03 04:51:52;;;;;;;9.32;3.80;;;;;;;9.30;60.90;103092.31;4963204;28;20027;-41
2023/05/03 04:54:17;;;;;;;7.15;3.72;;;;;;;9.41;60.45;103091.19;4963029;28;20046;-40
2023/05/03 04:56:43;;;;;;;9.00;3.92;;;;;;;9.50;59.95;103090.78;4958960;28;20074;-43
2023/05/03 04:59:09;;;;;;;7.15;3.83;;;;;;;9.29;60.09;103094.03;4962714;28;20029;-42
2023/05/03 05:01:34;;;;;;;7.45;4.10;;;;;;;9.43;59.99;103096.47;4959223;28;20066;-44
2023/05/03 05:04:00;;;;;;;6.57;3.80;;;;;;;9.69;59.22;103089.25;4962411;28;20108;-40
2023/05/03 05:06:26;;;;;;;6.88;3.58;;;;;;;9.79;58.86;103093.22;4960132;28;20038;-42
2023/05/03 05:08:51;;;;;;;6.78;4.03;;;;;;;9.84;58.44;103094.34;4965926;28;20034;-40
2023/05/03 05:11:17;;;;;;;6.13;3.90;;;;;;;10.11;58.35;103100.97;4965054;28;20538;-42
2023/05/03 05:13:43;;;;;;;7.97;3.60;;;;;;;10.42;56.79;103098.22;4959651;28;20043;-40
2023/05/03 05:16:08;;;;;;;8.30;3.50;;;;;;;10.58;56.40;103099.84;4962611;28;20402;-41
2023/05/03 05:18:33;;;;;;;6.65;3.58;;;;;;;10.75;54.57;103093.72;4959189;28;20038;-42
2023/05/03 05:20:59;;;;;;;7.03;3.60;;;;;;;10.96;54.10;103101.69;4962319;28;20039;-42
2023/05/03 05:23:24;;;;;;;7.53;3.40;;;;;;;11.19;51.41;103098.41;4959475;28;20031;-42
2023/05/03 05:25:49;;;;;;;7.00;3.60;;;;;;;11.85;50.90;103102.28;4962654;28;20039;-42
2023/05/03 05:28:15;;;;;;;7.45;3.55;;;;;;;12.42;49.22;103108.22;4962469;28;20046;-44
2023/05/03 05:30:40;;;;;;;8.02;3.13;;;;;;;12.63;47.81;103105.56;4958666;28;20031;-39
2023/05/03 05:33:06;;;;;;;6.45;3.08;;;;;;;12.90;47.06;103114.53;4962337;28;20498;-41
2023/05/03 05:35:32;;;;;;;5.90;2.95;;;;;;;12.99;45.70;103107.91;4959322;28;20034;-41
2023/05/03 05:37:57;;;;;;;6.57;2.97;;;;;;;13.55;45.50;103108.31;4963460;28;20027;-43
2023/05/03 05:40:23;;;;;;;5.95;2.70;;;;;;;14.07;43.48;103109.34;4961638;28;20081;-42
2023/05/03 05:42:49;;;;;;;7.60;2.88;;;;;;;14.15;43.83;103110.47;4962969;28;20051;-40
2023/05/03 05:45:14;;;;;;;7.05;2.80;;;;;;;14.48;41.78;103102.88;4962569;28;20544;-42
2023/05/03 05:47:39;;;;;;;8.70;2.95;;;;;;;15.20;40.89;103100.75;4961005;28;20109;-40
2023/05/03 05:50:05;;;;;;;7.70;2.58;;;;;;;15.85;39.60;103104.44;4964349;28;20034;-42
2023/05/03 05:52:31;;;;;;;5.40;2.78;;;;;;;16.53;38.07;103095.63;4963567;28;20043;-41
2023/05/03 05:54:56;;;;;;;8.40;2.70;;;;;;;17.25;36.79;103097.31;4967208;28;20037;-41
2023/05/03 05:57:21;;;;;;;5.85;2.53;;;;;;;17.80;35.54;103094.97;4963928;28;20030;-42
2023/05/03 05:59:46;;;;;;;7.13;2.40;;;;;;;18.40;33.57;103096.00;4966124;28;20059;-41
2023/05/03 06:02:15;;;;;;;6.88;2.25;;;;;;;18.78;33.29;103092.25;4967726;28;20057;-46
2023/05/03 06:04:41;;;;;;;4.50;2.00;;;;;;;19.39;32.13;103099.22;4963795;28;20113;-43
2023/05/03 06:07:06;;;;;;;7.43;2.20;;;;;;;19.62;31.80;103093.38;4967311;28;20041;-44
2023/05/03 06:09:32;;;;;;;4.93;2.28;;;;;;;19.77;30.28;103097.06;4963224;28;20110;-41
2023/05/03 06:11:57;;;;;;;7.10;2.28;;;;;;;19.53;31.56;103098.53;4966652;28;20041;-42
2023/05/03 06:14:22;;;;;;;5.45;1.92;;;;;;;19.88;29.91;103097.19;4962791;28;20601;-41
2023/05/03 06:16:48;;;;;;;5.15;1.95;;;;;;;20.46;29.25;103097.72;4965732;28;20034;-50
2023/05/03 06:19:13;;;;;;;6.70;1.80;;;;;;;20.10;29.82;103098.28;4965850;28;20039;-41
2023/05/03 06:21:38;;;;;;;5.20;1.70;;;;;;;20.61;29.36;103089.91;4962030;28;20035;-40
2023/05/03 06:24:04;;;;;;;5.45;1.88;;;;;;;20.45;29.50;103093.31;4965249;28;20035;-43
2023/05/03 06:26:29;;;;;;;4.88;1.70;;;;;;;20.62;29.06;103096.97;4962305;28;20405;-44
2023/05/03 06:28:55;;;;;;;4.43;2.10;;;;;;;19.12;30.30;103098.00;4965104;28;20130;-42
2023/05/03 06:31:20;;;;;;;6.30;2.00;;;;;;;18.57;31.45;103097.19;4961588;28;20045;-45
2023/05/03 06:33:45;;;;;;;7.85;2.17;;;;;;;19.85;29.95;103086.56;4964496;28;20046;-43
2023/05/03 06:36:11;;;;;;;5.03;2.20;;;;;;;20.34;28.71;103079.09;4964873;28;20043;-41
2023/05/03 06:38:37;;;;;;;5.50;2.28;;;;;;;20.38;29.30;103076.47;4961437;28;20035;-42
2023/05/03 06:41:02;;;;;;;4.82;1.70;;;;;;;21.24;28.65;103072.59;4964643;28;20035;-43
2023/05/03 06:43:27;;;;;;;5.53;1.75;;;;;;;21.57;28.12;103071.84;4962003;28;20063;-41
2023/05/03 06:45:53;;;;;;;5.93;1.70;;;;;;;21.06;28.06;103076.91;4967111;28;20062;-41
2023/05/03 06:48:18;;;;;;;6.20;1.63;;;;;;;21.10;27.25;103063.69;4961280;28;20107;-41
2023/05/03 06:50:43;;;;;;;3.75;1.60;;;;;;;21.16;27.46;103063.75;4966335;28;20035;-43
2023/05/03 06:53:09;;;;;;;6.07;1.42;;;;;;;21.46;27.39;103058.53;4966569;28;20113;-43
2023/05/03 06:55:34;;;;;;;3.60;1.50;;;;;;;21.02;27.12;103064.53;4962156;28;20045;-42
2023/05/03 06:57:59;;;;;;;4.32;1.40;;;;;;;20.83;27.57;103067.06;4964948;28;20031;-42
2023/05/03 07:00:24;;;;;;;6.13;1.77;;;;;;;20.92;27.19;103056.53;4960368;28;20035;-42
2023/05/03 07:02:50;;;;;;;3.25;1.52;;;;;;;19.47;28.44;103067.63;4964939;28;20033;-41
2023/05/03 07:05:16;;;;;;;4.40;1.67;;;;;;;20.17;28.67;103055.09;4964625;28;20437;-41
2023/05/03 07:07:41;;;;;;;3.00;1.40;;;;;;;20.74;28.04;103061.72;4962285;28;20110;-41
2023/05/03 07:10:07;;;;;;;5.75;1.73;;;;;;;20.89;27.95;103054.72;4966009;28;20075;-42
2023/05/03 07:12:32;;;;;;;4.75;1.60;;;;;;;20.98;27.82;103053.91;4962461;28;20146;-42
2023/05/03 07:14:57;;;;;;;3.97;1.40;;;;;;;21.08;27.31;103041.56;4965555;28;20023;-42
2023/05/03 07:17:23;;;;;;;9.77;2.03;;;;;;;21.40;27.06;103047.91;4963542;28;20069;-46
2023/05/03 07:19:49;;;;;;;4.65;1.90;;;;;;;20.90;27.75;103045.00;4965404;28;20026;-41
2023/05/03 07:22:15;;;;;;;3.92;1.70;;;;;;;21.47;27.49;103035.56;4964474;28;20062;-41
2023/05/03 07:24:40;;;;;;;3.95;1.60;;;;;;;21.21;27.61;103041.66;4961401;28;20445;-43
2023/05/03 07:27:06;;;;;;;5.28;1.90;;;;;;;20.64;28.63;103042.22;4964151;28;20055;-42
2023/05/03 07:29:31;;;;;;;6.50;1.80;;;;;;;21.03;27.91;103045.09;4962762;28;20050;-42
2023/05/03 07:31:57;;;;;;;5.43;1.70;;;;;;;21.60;26.49;103040.88;4966397;28;20026;-40
2023/05/03 07:34:23;;;;;;;5.65;1.70;;;;;;;22.31;26.42;103028.56;4962606;28;20039;-43
2023/05/03 07:36:49;;;;;;;6.10;1.52;;;;;;;22.62;25.93;103020.53;4963702;28;20042;-42
2023/05/03 07:39:14;;;;;;;6.78;1.90;;;;;;;22.62;25.65;103016.97;4964069;28;20401;-45
2023/05/03 07:41:40;;;;;;;5.45;2.03;;;;;;;22.02;26.38;103015.25;4961552;28;20041;-43
2023/05/03 07:44:05;;;;;;;3.90;1.65;;;;;;;21.72;26.54;103010.78;4964003;28;20031;-43
2023/05/03 07:46:33;;;;;;;5.03;1.70;;;;;;;21.69;26.79;103018.78;4961512;28;20554;-44
2023/05/03 07:49:03;;;;;;;7.22;1.88;;;;;;;21.52;26.89;103021.41;4964271;28;20031;-43
2023/05/03 07:51:28;;;;;;;7.10;2.10;;;;;;;21.14;27.34;103028.31;4960018;28;20041;-41
2023/05/03 07:53:55;;;;;;;5.32;1.80;;;;;;;21.94;26.58;103033.84;4964531;28;20516;-41
2023/05/03 07:56:20;;;;;;;6.13;1.90;;;;;;;22.01;25.78;103032.13;4960296;28;20046;-42
2023/05/03 07:58:46;;;;;;;4.75;1.60;;;;;;;22.55;26.12;103023.19;4963696;28;20138;-41
2023/05/03 08:01:11;;;;;;;3.33;1.70;;;;;;;22.28;25.53;103021.47;4963616;28;20155;-40
2023/05/03 08:03:36;;;;;;;4.90;1.70;;;;;;;21.69;26.42;103017.00;4960652;28;20409;-41
2023/05/03 08:06:02;;;;;;;8.63;2.70;;;;;;;21.79;26.69;103008.16;4963697;28;20034;-45
2023/05/03 08:08:28;;;;;;;4.93;1.95;;;;;;;20.85;27.36;103022.91;4959141;28;20027;-39
2023/05/03 08:10:53;;;;;;;3.97;1.80;;;;;;;20.11;28.46;103029.44;4964170;28;20034;-42
2023/05/03 08:13:18;;;;;;;3.42;1.95;;;;;;;18.60;30.53;103026.78;4960656;28;20041;-40
2023/05/03 08:15:44;;;;;;;6.47;2.10;;;;;;;18.39;31.51;103031.75;4962500;28;20050;-43
2023/05/03 08:18:10;;;;;;;4.65;2.20;;;;;;;17.26;33.39;103030.56;4962983;28;20035;-41
2023/05/03 08:20:35;;;;;;;5.68;2.10;;;;;;;15.98;34.63;103029.34;4960461;28;20589;-41
2023/05/03 08:23:01;;;;;;;4.57;2.08;;;;;;;16.16;35.43;103033.31;4964798;28;20046;-41
2023/05/03 08:25:27;;;;;;;8.52;2.40;;;;;;;16.09;35.44;103031.41;4959942;28;20029;-41
2023/05/03 08:27:52;;;;;;;5.03;2.13;;;;;;;16.59;34.66;103024.72;4964020;28;20035;-41
2023/05/03 08:30:20;;;;;;;5.90;2.20;;;;;;;16.05;36.04;103036.53;4962341;28;20046;-39
2023/05/03 08:32:47;;;;;;;9.48;2.20;;;;;;;15.92;37.49;103037.09;4964549;28;20082;-44
2023/05/03 08:35:14;;;;;;;4.18;2.35;;;;;;;16.13;36.10;103042.88;4962976;28;20050;-41
2023/05/03 08:37:40;;;;;;;7.97;2.33;;;;;;;16.20;35.73;103047.44;4960076;28;20035;-43
2023/05/03 08:40:06;;;;;;;5.45;2.50;;;;;;;16.03;36.30;103052.31;4962882;28;20689;-42
2023/05/03 08:42:32;;;;;;;5.80;2.50;;;;;;;16.05;35.27;103044.41;4959753;28;20536;-43
2023/05/03 08:44:58;;;;;;;7.28;2.50;;;;;;;15.99;35.38;103042.53;4963001;28;20039;-41
2023/05/03 08:47:25;;;;;;;5.50;2.50;;;;;;;16.44;36.76;103036.63;4959960;28;20031;-42
2023/05/03 08:49:52;;;;;;;4.28;2.33;;;;;;;16.02;35.47;103040.00;4962612;28;20027;-42
2023/05/03 08:52:20;;;;;;;5.30;2.70;;;;;;;16.55;35.31;103041.28;4959613;28;20082;-39
2023/05/03 08:54:45;;;;;;;6.40;2.63;;;;;;;16.70;35.99;103053.06;4961699;28;20055;-45
2023/05/03 08:57:13;;;;;;;5.28;2.63;;;;;;;16.00;35.86;103057.47;4962243;28;20055;-40
2023/05/03 08:59:49;;;;;;;4.65;2.40;;;;;;;16.28;36.28;103047.66;4958821;28;20057;-43
2023/05/03 09:02:15;;;;;;;6.82;2.80;;;;;;;16.59;35.48;103047.50;4962208;28;20031;-42
2023/05/03 09:04:41;;;;;;;7.47;2.60;;;;;;;16.62;35.42;103048.50;4958503;28;20038;-42
2023/05/03 09:07:08;;;;;;;7.13;2.78;;;;;;;16.97;34.40;103051.03;4962498;28;20121;-44
2023/05/03 09:09:33;;;;;;;4.75;2.60;;;;;;;16.55;34.66;103037.75;4960712;28;20051;-41
2023/05/03 09:11:58;;;;;;;6.78;2.53;;;;;;;16.60;35.75;103042.31;4963039;28;20027;-45
2023/05/03 09:14:23;;;;;;;6.32;2.70;;;;;;;16.29;35.45;103041.50;4959161;28;20037;-42
2023/05/03 09:16:49;;;;;;;5.80;2.45;;;;;;;16.71;35.48;103039.03;4962666;28;20448;-40
2023/05/03 09:19:15;;;;;;;5.25;2.83;;;;;;;16.79;35.82;103042.72;4962313;28;20073;-40
2023/05/03 09:21:42;;;;;;;9.38;2.88;;;;;;;16.44;35.37;103034.88;4960108;28;20125;-40
2023/05/03 09:24:18;;;;;;;7.07;2.75;;;;;;;16.95;35.17;103031.69;4966355;28;20031;-40
2023/05/03 09:26:45;;;;;;;7.38;2.63;;;;;;;17.04;34.59;103029.22;4964031;28;20030;-41
2023/05/03 09:29:29;;;;;;;7.15;2.95;;;;;;;17.10;34.58;103028.47;4965119;28;20034;-41
2023/05/03 09:31:59;;;;;;;6.85;3.10;;;;;;;16.41;35.11;103034.78;4964822;28;20034;-41
2023/05/03 09:34:24;;;;;;;8.10;3.13;;;;;;;16.45;35.65;103035.78;4963325;28;20057;-42
2023/05/03 09:36:50;;;;;;;6.80;3.10;;;;;;;16.69;35.56;103028.47;4966240;28;20474;-42
2023/05/03 09:39:16;;;;;;;8.25;3.25;;;;;;;16.76;35.15;103021.59;4965954;28;20026;-41
2023/05/03 09:41:42;;;;;;;6.30;2.63;;;;;;;17.10;36.03;103026.72;4963857;28;20038;-42
2023/05/03 09:44:07;;;;;;;6.97;3.10;;;;;;;17.44;35.73;103033.56;4965988;28;20497;-42
2023/05/03 09:46:32;;;;;;;6.47;3.13;;;;;;;16.98;35.33;103029.09;4962713;28;20573;-42
2023/05/03 09:48:58;;;;;;;7.05;3.33;;;;;;;16.70;35.10;103032.00;4965731;28;20502;-42
2023/05/03 09:51:23;;;;;;;5.68;2.97;;;;;;;16.93;36.46;103042.19;4964116;28;20035;-40
2023/05/03 09:53:49;;;;;;;7.15;3.50;;;;;;;16.97;35.31;103038.75;4967255;28;20034;-41
2023/05/03 09:56:15;;;;;;;7.82;3.05;;;;;;;17.25;35.47;103032.31;4967549;28;20039;-42
2023/05/03 09:58:42;;;;;;;5.60;3.22;;;;;;;17.27;35.01;103029.69;4963934;28;20082;-41
2023/05/03 10:01:08;;;;;;;5.72;3.03;;;;;;;17.34;34.96;103027.22;4967425;28;20035;-41
2023/05/03 10:03:40;;;;;;;6.38;3.60;;;;;;;17.53;35.47;103036.38;4961799;28;20039;-40
2023/05/03 10:06:16;;;;;;;8.23;3.42;;;;;;;17.54;35.36;103026.72;4968448;28;20035;-40
2023/05/03 10:08:53;;;;;;;7.78;3.60;;;;;;;17.03;34.88;103030.97;4967222;28;20114;-44
2023/05/03 10:11:18;;;;;;;7.32;3.30;;;;;;;16.99;34.73;103026.50;4971988;28;20058;-41
2023/05/03 10:13:45;;;;;;;5.90;3.20;;;;;;;17.15;35.83;103021.53;4976720;28;20506;-43
2023/05/03 10:16:16;;;;;;;9.40;3.30;;;;;;;17.27;36.21;103019.13;4970357;28;20097;-43
2023/05/03 10:18:51;;;;;;;5.75;3.45;;;;;;;17.11;34.66;103020.59;4964489;28;20085;-44
2023/05/03 10:21:32;;;;;;;8.23;3.90;;;;;;;17.18;34.99;103017.22;4968747;28;20039;-41
2023/05/03 10:24:17;;;;;;;6.55;3.50;;;;;;;17.04;36.30;103027.47;4964433;28;20402;-42
2023/05/03 10:26:48;;;;;;;8.25;3.78;;;;;;;16.82;35.32;103021.72;4961418;28;20050;-42
2023/05/03 10:29:36;;;;;;;6.80;3.65;;;;;;;17.38;34.92;103018.50;4964459;28;20038;-42
2023/05/03 10:32:02;;;;;;;6.28;3.65;;;;;;;17.19;34.30;103016.38;4963590;28;20490;-44
2023/05/03 10:34:32;;;;;;;7.25;3.90;;;;;;;16.69;35.54;103012.66;4961083;28;20031;-41
2023/05/03 10:37:10;;;;;;;8.05;3.53;;;;;;;16.94;35.60;103003.53;4964539;28;20049;-38
2023/05/03 10:39:36;;;;;;;7.43;3.95;;;;;;;16.85;35.64;103009.50;4961170;28;20035;-41
2023/05/03 10:42:03;;;;;;;9.10;4.13;;;;;;;16.71;35.67;103010.06;4965237;28;20031;-41
2023/05/03 10:44:40;;;;;;;8.07;4.13;;;;;;;17.12;35.56;103009.19;4960820;28;20030;-45
2023/05/03 10:47:39;;;;;;;8.20;3.80;;;;;;;17.12;34.40;102998.66;4964062;28;20489;-43
2023/05/03 10:50:10;;;;;;;5.53;3.20;;;;;;;17.53;36.52;102996.81;4951484;28;20035;-42
2023/05/03 10:52:42;;;;;;;7.47;3.90;;;;;;;17.68;34.96;102991.84;4960678;28;20121;-41
2023/05/03 10:55:17;;;;;;;7.57;3.90;;;;;;;17.56;34.49;102996.00;4964001;28;20050;-44
2023/05/03 10:57:45;;;;;;;7.32;3.55;;;;;;;17.59;36.77;102991.63;4960715;28;20043;-40
2023/05/03 11:00:33;;;;;;;9.25;4.18;;;;;;;17.37;34.36;102995.66;4964239;28;20086;-43
2023/05/03 11:03:17;;;;;;;6.88;4.18;;;;;;;17.76;35.40;102999.88;4963818;28;20046;-40
2023/05/03 11:05:42;;;;;;;7.35;3.90;;;;;;;18.14;34.24;102987.31;4959749;28;20047;-44
2023/05/03 11:08:12;;;;;;;7.78;4.15;;;;;;;18.16;34.33;102990.91;4964517;28;20035;-41
2023/05/03 11:10:39;;;;;;;6.80;4.10;;;;;;;17.92;34.02;102986.09;4960346;28;20046;-40
2023/05/03 11:13:05;;;;;;;6.90;4.28;;;;;;;17.91;33.71;102986.06;4964210;28;20405;-42
2023/05/03 11:15:31;;;;;;;6.88;4.15;;;;;;;17.50;34.54;102977.41;4960109;28;20045;-41
2023/05/03 11:17:56;;;;;;;8.20;4.45;;;;;;;17.25;34.71;102974.31;4964078;28;20122;-41
2023/05/03 11:20:22;;;;;;;9.38;4.70;;;;;;;17.29;35.73;102972.63;4960085;28;20174;-42
2023/05/03 11:22:48;;;;;;;7.60;4.65;;;;;;;17.85;34.12;102968.41;4963824;28;20037;-45
2023/05/03 11:25:14;;;;;;;8.77;4.45;;;;;;;18.02;34.46;102966.03;4963140;28;20409;-42